San Cosme, Argentina
Current Conditions -  °F | °C
As of 9:00 PM on Wednesday 28 Jan 2015 (Local Time) from SARC Reporting Station
Thunderstorm Thunderstorm  
Wind Chill: 75°   Ceiling: 10000
Heat Index: 75°   Visibility: 6mi
Dew Point: 73°   Wind: 3mph
Humidity: 94%   Direction: 90°E
Pressure: 29.74"   Gusts: NA
Location:  27.37°S, 58.52°W
Report Text: SARC 290000Z 09003KT 9999 TS FEW020 FEW050CB BKN100 24/23 Q1007
Loading
Personal Weather Stations






























Interactive Weather Map New forecast layout! Learn more

10-Day Weather Forecast

Advertisements
Track Severe Weather on mobile